Time;durP1;ratioP1;P1;durP2;ratioP2;P2;SDS_P1;SDS_P2;PMS_P1;PMS_P2;Temp;Humidity;BMP_temperature;BMP_pressure;BME280_temperature;BME280_humidity;BME280_pressure;Samples;Min_cycle;Max_cycle;Signal;HPM_P1;HPM_P2
2020/12/28 00:00:01;;;;;;;18.12;13.40;;;;;;;0.20;78.67;99765.36;1822092;78;21512;-69
2020/12/28 00:02:28;;;;;;;14.83;10.28;;;;;;;0.15;78.83;99778.13;1809427;79;21108;-69
2020/12/28 00:04:56;;;;;;;15.83;11.38;;;;;;;0.10;78.96;99755.50;1822018;78;21151;-69
2020/12/28 00:07:25;;;;;;;16.05;10.82;;;;;;;0.05;79.24;99767.81;1809492;79;21040;-70
2020/12/28 00:09:54;;;;;;;12.73;10.00;;;;;;;0.05;79.42;99755.03;1822112;78;21476;-70
2020/12/28 00:12:22;;;;;;;14.47;10.75;;;;;;;0.06;79.36;99760.16;1809436;79;21368;-70
2020/12/28 00:14:50;;;;;;;20.55;10.32;;;;;;;0.05;79.38;99748.22;1822057;78;21130;-70
2020/12/28 00:17:18;;;;;;;14.43;10.23;;;;;;;0.06;79.35;99746.09;1822039;78;21520;-70
2020/12/28 00:19:45;;;;;;;18.80;10.75;;;;;;;0.06;79.32;99739.70;1809445;79;21405;-70
2020/12/28 00:22:13;;;;;;;16.50;10.70;;;;;;;0.06;79.36;99726.91;1822097;78;21496;-70
2020/12/28 00:24:40;;;;;;;16.75;11.88;;;;;;;0.06;79.34;99734.59;1809379;79;23376;-70
2020/12/28 00:27:08;;;;;;;16.25;10.55;;;;;;;0.08;79.34;99723.09;1821885;78;21159;-70
2020/12/28 00:29:35;;;;;;;17.32;11.12;;;;;;;0.10;79.40;99727.36;1809469;79;21040;-70
2020/12/28 00:32:04;;;;;;;19.10;10.43;;;;;;;0.17;79.23;99729.54;1822095;78;21064;-70
2020/12/28 00:34:32;;;;;;;13.58;9.75;;;;;;;0.21;78.93;99728.25;1809466;79;21504;-70
2020/12/28 00:37:00;;;;;;;15.78;10.05;;;;;;;0.23;78.94;99724.00;1822081;78;21203;-70
2020/12/28 00:39:27;;;;;;;12.00;9.10;;;;;;;0.25;78.70;99723.59;1821968;78;21175;-70
2020/12/28 00:41:55;;;;;;;14.90;10.30;;;;;;;0.27;78.55;99709.52;1809447;79;21052;-70
2020/12/28 00:44:22;;;;;;;14.38;9.40;;;;;;;0.24;78.45;99724.44;1822039;78;21075;-70
2020/12/28 00:46:50;;;;;;;13.80;9.90;;;;;;;0.25;78.51;99715.06;1809488;79;21499;-70
2020/12/28 00:49:18;;;;;;;14.18;10.40;;;;;;;0.26;78.49;99712.93;1822062;78;23523;-70
2020/12/28 00:51:45;;;;;;;14.58;9.78;;;;;;;0.30;78.46;99715.52;1809389;79;21154;-70
2020/12/28 00:54:13;;;;;;;12.85;10.55;;;;;;;0.30;78.21;99706.56;1822064;78;21531;-70
2020/12/28 00:56:41;;;;;;;10.58;8.58;;;;;;;0.30;78.22;99704.00;1809433;79;21056;-70
2020/12/28 00:59:09;;;;;;;14.98;9.35;;;;;;;0.31;78.18;99699.73;1822087;78;21540;-71
2020/12/28 01:01:37;;;;;;;15.80;10.35;;;;;;;0.29;78.18;99698.45;1809460;79;21305;-70
2020/12/28 01:04:05;;;;;;;13.88;9.38;;;;;;;0.29;78.30;99703.99;1809432;79;21492;-71
2020/12/28 01:06:43;;;;;;;13.53;8.60;;;;;;;0.32;78.39;99701.03;1890008;76;22331;-70
2020/12/28 01:09:21;;;;;;;14.30;9.68;;;;;;;0.28;78.29;99695.47;1822698;77;21064;-70
2020/12/28 01:11:49;;;;;;;16.12;9.33;;;;;;;0.27;78.27;99686.50;1861033;77;21525;-70
2020/12/28 01:14:17;;;;;;;17.60;10.80;;;;;;;0.25;78.33;99674.98;1860917;77;21533;-70
2020/12/28 01:16:45;;;;;;;22.80;13.00;;;;;;;0.24;78.46;99672.42;1860888;77;21013;-70
2020/12/28 01:19:13;;;;;;;19.15;11.50;;;;;;;0.23;78.60;99663.89;1833718;77;21041;-71
2020/12/28 01:21:41;;;;;;;21.80;12.78;;;;;;;0.27;78.64;99657.08;1827245;78;21081;-70
2020/12/28 01:24:10;;;;;;;14.25;9.08;;;;;;;0.29;78.57;99642.59;1827243;78;21509;-70
2020/12/28 01:26:38;;;;;;;16.87;8.98;;;;;;;0.31;78.46;99646.02;1827136;78;21148;-70
2020/12/28 01:29:10;;;;;;;14.07;8.73;;;;;;;0.32;78.44;99638.34;1827199;78;21129;-70
2020/12/28 01:31:39;;;;;;;15.18;10.28;;;;;;;0.36;78.45;99645.61;1827242;78;21561;-70
2020/12/28 01:34:29;;;;;;;16.82;10.55;;;;;;;0.47;78.33;99634.10;1775304;79;22714;-70
2020/12/28 01:36:58;;;;;;;24.10;11.03;;;;;;;0.46;78.22;99635.80;1749152;82;21139;-70
2020/12/28 01:39:28;;;;;;;14.40;9.75;;;;;;;0.51;77.90;99637.09;1747086;80;21377;-71
2020/12/28 01:41:56;;;;;;;13.98;9.00;;;;;;;0.51;77.64;99635.39;1749507;82;21917;-70
2020/12/28 01:44:24;;;;;;;14.90;9.63;;;;;;;0.53;77.65;99627.72;1749571;82;21048;-70
2020/12/28 01:46:53;;;;;;;11.08;8.70;;;;;;;0.54;77.49;99618.77;1748668;82;21492;-70
2020/12/28 01:49:21;;;;;;;14.43;8.78;;;;;;;0.54;77.08;99617.48;1749606;82;21566;-70
2020/12/28 01:51:48;;;;;;;16.73;8.85;;;;;;;0.52;77.25;99602.55;1749701;82;21830;-70
2020/12/28 01:54:20;;;;;;;22.27;10.40;;;;;;;0.52;77.06;99600.00;1749519;82;21172;-70
2020/12/28 01:56:49;;;;;;;14.18;9.28;;;;;;;0.50;77.09;99604.68;1749620;82;20961;-70
2020/12/28 01:59:18;;;;;;;16.12;9.40;;;;;;;0.48;77.02;99583.35;1720523;82;21167;-70
2020/12/28 02:01:47;;;;;;;10.23;7.92;;;;;;;0.48;77.12;99591.03;1749697;80;21104;-70
2020/12/28 02:04:16;;;;;;;12.58;8.73;;;;;;;0.46;77.05;99593.59;1749592;82;21170;-70
2020/12/28 02:06:46;;;;;;;12.05;7.90;;;;;;;0.45;77.19;99584.20;1747893;82;21163;-70
2020/12/28 02:09:15;;;;;;;12.80;8.08;;;;;;;0.48;77.11;99585.48;1749664;80;21072;-70
2020/12/28 02:11:44;;;;;;;13.05;8.15;;;;;;;0.49;76.83;99578.66;1749682;82;21071;-70
2020/12/28 02:14:12;;;;;;;12.98;8.25;;;;;;;0.50;76.91;99583.78;1749573;82;21481;-70
2020/12/28 02:16:45;;;;;;;12.65;8.63;;;;;;;0.53;76.74;99574.84;1748067;82;21203;-70
2020/12/28 02:19:15;;;;;;;13.25;8.30;;;;;;;0.54;76.74;99579.53;1724989;82;21063;-70
2020/12/28 02:21:44;;;;;;;10.68;6.72;;;;;;;0.55;76.52;99583.80;1719567;83;21083;-70
2020/12/28 02:24:16;;;;;;;14.15;7.65;;;;;;;0.59;76.43;99571.01;1719842;83;21492;-70
2020/12/28 02:26:45;;;;;;;16.87;7.97;;;;;;;0.62;76.13;99570.12;1719821;83;21052;-69
2020/12/28 02:29:12;;;;;;;12.70;8.08;;;;;;;0.61;75.94;99564.16;1719738;83;21205;-69
2020/12/28 02:31:41;;;;;;;11.80;7.97;;;;;;;0.59;75.99;99567.59;1719652;83;21076;-69
2020/12/28 02:34:09;;;;;;;11.65;6.97;;;;;;;0.60;76.04;99569.30;1687656;84;21197;-69
2020/12/28 02:36:38;;;;;;;14.47;7.12;;;;;;;0.60;75.89;99561.17;1706313;83;21146;-69
2020/12/28 02:39:07;;;;;;;11.90;7.67;;;;;;;0.59;75.91;99569.73;1706993;84;21123;-69
2020/12/28 02:41:34;;;;;;;12.53;8.28;;;;;;;0.64;76.00;99570.98;1706951;84;23604;-69
2020/12/28 02:44:20;;;;;;;11.10;7.55;;;;;;;0.65;75.81;99553.50;1706679;84;21064;-69
2020/12/28 02:47:06;;;;;;;11.97;7.37;;;;;;;0.66;75.77;99548.80;1706476;83;21172;-69
2020/12/28 02:49:52;;;;;;;11.83;7.47;;;;;;;0.66;75.54;99548.80;1706460;84;21079;-69
2020/12/28 02:52:38;;;;;;;13.22;7.75;;;;;;;0.66;75.37;99533.02;1706395;84;21647;-69
2020/12/28 02:55:24;;;;;;;11.30;6.70;;;;;;;0.67;75.47;99530.03;1706506;84;21206;-69
2020/12/28 02:58:04;;;;;;;12.78;7.35;;;;;;;0.71;75.21;99533.02;1873631;76;22546;-70
2020/12/28 03:00:50;;;;;;;11.38;6.87;;;;;;;0.67;75.39;99533.45;1841616;78;21095;-70
2020/12/28 03:03:35;;;;;;;16.00;6.97;;;;;;;0.70;75.17;99523.64;1707923;83;21215;-70
2020/12/28 03:06:21;;;;;;;20.88;7.47;;;;;;;0.69;74.92;99520.22;1747082;80;21523;-69
2020/12/28 03:09:08;;;;;;;21.48;8.33;;;;;;;0.69;74.95;99511.69;1782203;80;20999;-69
2020/12/28 03:11:54;;;;;;;12.23;7.97;;;;;;;0.67;74.94;99519.80;1782215;80;21035;-69
2020/12/28 03:14:43;;;;;;;9.83;6.62;;;;;;;0.66;74.89;99515.53;1782200;80;21714;-69
2020/12/28 03:17:29;;;;;;;10.15;6.45;;;;;;;0.64;74.88;99519.36;1779831;80;22391;-69
2020/12/28 03:20:15;;;;;;;16.57;7.90;;;;;;;0.63;74.90;99524.06;1751206;80;20912;-69
2020/12/28 03:23:01;;;;;;;10.98;6.90;;;;;;;0.64;75.00;99516.80;1751224;82;21082;-69
2020/12/28 03:25:47;;;;;;;22.77;7.70;;;;;;;0.68;74.98;99504.44;1751234;80;21141;-69
2020/12/28 03:28:33;;;;;;;11.57;6.72;;;;;;;0.73;74.44;99502.30;1751314;82;21425;-69
2020/12/28 03:31:19;;;;;;;11.75;7.78;;;;;;;0.77;74.39;99504.02;1751216;80;21342;-69
2020/12/28 03:34:06;;;;;;;12.30;7.58;;;;;;;0.76;74.44;99486.95;1751218;82;21075;-69
2020/12/28 03:36:52;;;;;;;18.42;7.65;;;;;;;0.79;74.57;99497.19;1751263;82;21483;-69
2020/12/28 03:39:38;;;;;;;12.18;7.37;;;;;;;0.78;74.54;99507.00;1726441;82;21578;-69
2020/12/28 03:42:26;;;;;;;12.70;7.50;;;;;;;0.78;74.51;99493.77;1751242;82;21055;-69
2020/12/28 03:45:12;;;;;;;11.68;7.50;;;;;;;0.79;74.57;99495.48;1751230;82;21207;-69
2020/12/28 03:47:59;;;;;;;9.33;6.92;;;;;;;0.85;74.27;99486.91;1751125;82;21129;-69
2020/12/28 03:50:45;;;;;;;12.60;7.42;;;;;;;0.86;74.19;99474.11;1751219;82;21067;-69
2020/12/28 03:53:31;;;;;;;11.35;7.47;;;;;;;0.85;74.03;99460.87;1751284;80;21483;-69
2020/12/28 03:56:19;;;;;;;13.40;7.72;;;;;;;0.85;74.13;99480.51;1753300;81;21213;-68
2020/12/28 03:59:05;;;;;;;12.80;7.72;;;;;;;0.84;74.02;99467.28;1768137;81;21187;-69
2020/12/28 04:01:51;;;;;;;21.87;8.60;;;;;;;0.80;73.85;99467.70;1768109;81;21095;-69
2020/12/28 04:04:29;;;;;;;11.33;7.58;;;;;;;0.83;74.02;99473.25;1816039;79;22271;-70
2020/12/28 04:07:16;;;;;;;13.80;7.60;;;;;;;0.81;74.03;99475.81;1789127;80;21115;-70
2020/12/28 04:09:51;;;;;;;15.38;8.55;;;;;;;0.80;73.96;99484.35;1754408;80;21291;-70
2020/12/28 04:12:38;;;;;;;12.35;7.50;;;;;;;0.78;74.08;99480.97;1789082;80;20960;-70
2020/12/28 04:15:05;;;;;;;15.55;7.62;;;;;;;0.79;74.12;99475.42;1789079;80;20980;-70
2020/12/28 04:17:34;;;;;;;10.65;7.55;;;;;;;0.80;74.07;99461.77;1785902;80;21131;-70
2020/12/28 04:20:02;;;;;;;16.23;8.85;;;;;;;0.80;74.02;99464.33;1757894;81;21194;-70
2020/12/28 04:22:29;;;;;;;13.60;8.35;;;;;;;0.77;74.09;99455.38;1757938;81;23618;-70
2020/12/28 04:24:58;;;;;;;16.62;8.53;;;;;;;0.76;74.27;99451.95;1757840;81;21075;-70
2020/12/28 04:27:25;;;;;;;14.00;7.85;;;;;;;0.76;74.38;99459.64;1757916;81;21532;-70
2020/12/28 04:29:54;;;;;;;17.45;9.33;;;;;;;0.80;74.44;99462.59;1757901;81;21135;-70
2020/12/28 04:32:21;;;;;;;12.93;7.92;;;;;;;0.82;74.43;99455.76;1757923;81;21059;-70
2020/12/28 04:34:49;;;;;;;18.42;8.65;;;;;;;0.87;74.44;99468.56;1757854;81;21207;-70
2020/12/28 04:37:17;;;;;;;13.30;7.85;;;;;;;0.85;74.41;99453.63;1757816;81;21083;-70
2020/12/28 04:39:44;;;;;;;12.18;7.60;;;;;;;0.82;74.60;99448.08;1757960;81;21559;-70
2020/12/28 04:42:12;;;;;;;12.23;8.95;;;;;;;0.82;74.68;99443.39;1757845;81;21163;-70
2020/12/28 04:44:40;;;;;;;17.02;8.83;;;;;;;0.79;74.84;99428.06;1757902;81;21047;-69
2020/12/28 04:47:08;;;;;;;13.03;7.83;;;;;;;0.79;75.05;99429.34;1757816;81;21214;-69
2020/12/28 04:49:36;;;;;;;17.70;8.95;;;;;;;0.80;75.15;99426.75;1757823;81;21504;-70
2020/12/28 04:52:03;;;;;;;17.17;8.70;;;;;;;0.82;75.16;99421.20;1757835;81;21523;-69
2020/12/28 04:54:31;;;;;;;11.28;7.67;;;;;;;0.85;75.28;99430.16;1757862;81;21146;-69
2020/12/28 04:56:58;;;;;;;14.90;8.35;;;;;;;0.88;75.31;99440.39;1757899;81;21051;-69
2020/12/28 04:59:26;;;;;;;14.75;8.18;;;;;;;0.91;75.32;99439.53;1757884;81;21570;-69
2020/12/28 05:01:54;;;;;;;12.88;8.75;;;;;;;0.92;75.44;99443.38;1757748;81;21858;-69
2020/12/28 05:04:25;;;;;;;14.53;8.00;;;;;;;0.94;75.49;99452.33;1753747;81;21157;-69
2020/12/28 05:07:02;;;;;;;15.05;8.70;;;;;;;0.97;75.57;99451.90;1753015;81;21583;-68
2020/12/28 05:09:29;;;;;;;10.78;8.18;;;;;;;1.01;75.62;99447.59;1753084;81;21483;-68
2020/12/28 05:12:04;;;;;;;13.13;8.18;;;;;;;1.04;75.68;99452.28;1753037;81;21387;-68
2020/12/28 05:14:33;;;;;;;11.08;7.72;;;;;;;1.06;75.76;99448.44;1752735;81;21207;-68
2020/12/28 05:17:05;;;;;;;16.32;8.08;;;;;;;1.09;75.84;99452.27;1752596;81;21162;-70
2020/12/28 05:19:35;;;;;;;14.05;9.08;;;;;;;1.09;75.94;99442.03;1752560;80;21575;-71
2020/12/28 05:22:03;;;;;;;18.25;9.78;;;;;;;1.09;76.09;99450.14;1752582;81;21111;-71
2020/12/28 05:24:31;;;;;;;19.35;10.45;;;;;;;1.08;76.27;99456.12;1752559;81;22246;-69
2020/12/28 05:26:59;;;;;;;12.28;7.92;;;;;;;1.09;76.43;99453.98;1752399;81;21131;-69
2020/12/28 05:29:27;;;;;;;14.55;8.90;;;;;;;1.08;76.61;99433.92;1752465;81;21056;-69
2020/12/28 05:31:56;;;;;;;11.28;7.97;;;;;;;1.06;76.76;99420.27;1752476;81;21130;-69
2020/12/28 05:34:27;;;;;;;14.75;8.60;;;;;;;1.03;77.04;99424.11;1752571;81;21111;-68
2020/12/28 05:36:57;;;;;;;19.70;11.60;;;;;;;1.00;77.25;99408.33;1752586;81;22338;-68
2020/12/28 05:39:26;;;;;;;10.75;8.25;;;;;;;1.00;77.49;99408.33;1752373;81;21135;-69
2020/12/28 05:42:10;;;;;;;22.05;12.23;;;;;;;1.01;77.67;99409.17;1752424;81;21182;-69
2020/12/28 05:44:43;;;;;;;12.75;8.45;;;;;;;1.05;77.77;99412.16;1752487;81;21067;-69
2020/12/28 05:47:12;;;;;;;12.98;7.90;;;;;;;1.06;77.91;99402.77;1752645;81;21047;-71
2020/12/28 05:49:46;;;;;;;16.35;8.43;;;;;;;1.07;78.06;99389.95;1752450;81;21374;-70
2020/12/28 05:52:16;;;;;;;18.17;9.53;;;;;;;1.07;78.29;99384.83;1752536;81;21166;-69
2020/12/28 05:54:45;;;;;;;22.70;11.48;;;;;;;1.09;78.43;99395.07;1752554;81;21099;-69
2020/12/28 05:57:12;;;;;;;17.85;8.88;;;;;;;1.11;78.57;99385.67;1752416;81;21147;-69
2020/12/28 05:59:40;;;;;;;14.87;8.08;;;;;;;1.13;78.65;99372.43;1752420;81;21488;-69
2020/12/28 06:02:08;;;;;;;35.65;13.83;;;;;;;1.16;78.67;99391.63;1752461;81;22210;-71
2020/12/28 06:04:40;;;;;;;35.43;10.03;;;;;;;1.19;78.75;99396.75;1745590;81;21071;-69
2020/12/28 06:07:07;;;;;;;13.50;7.90;;;;;;;1.23;78.86;99396.70;1743606;82;21617;-70
2020/12/28 06:09:35;;;;;;;20.97;7.95;;;;;;;1.27;78.82;99393.70;1741842;82;21187;-69
2020/12/28 06:12:10;;;;;;;17.50;8.33;;;;;;;1.30;78.74;99402.66;1719991;82;21211;-69
2020/12/28 06:14:40;;;;;;;21.37;9.10;;;;;;;1.31;78.64;99419.30;1741826;82;21208;-69
2020/12/28 06:17:11;;;;;;;15.68;8.05;;;;;;;1.31;78.68;99413.33;1741690;82;21244;-69
2020/12/28 06:19:43;;;;;;;13.15;8.80;;;;;;;1.33;78.75;99409.05;1744478;81;21484;-70
2020/12/28 06:22:22;;;;;;;20.60;9.90;;;;;;;1.33;78.69;99394.52;1743846;82;21178;-71
2020/12/28 06:24:59;;;;;;;18.52;8.55;;;;;;;1.34;78.76;99380.00;1744155;82;21088;-70
2020/12/28 06:27:32;;;;;;;24.30;9.35;;;;;;;1.32;78.67;99390.26;1743251;82;21382;-69
2020/12/28 06:30:17;;;;;;;16.52;9.15;;;;;;;1.30;78.73;99382.16;1744276;82;21104;-68
2020/12/28 06:32:49;;;;;;;11.80;8.03;;;;;;;1.28;78.83;99378.75;1744259;82;21136;-70
2020/12/28 06:35:17;;;;;;;19.30;8.55;;;;;;;1.26;78.91;99376.19;1744134;82;21072;-69
2020/12/28 06:40:41;;;;;;;16.15;7.45;;;;;;;1.29;79.00;99376.61;1873505;75;22650;-69
2020/12/28 06:43:16;;;;;;;13.35;8.33;;;;;;;1.26;78.98;99374.91;1838517;76;21045;-69
2020/12/28 06:45:51;;;;;;;15.30;8.73;;;;;;;1.26;79.03;99374.06;1841528;78;21364;-70
2020/12/28 06:48:25;;;;;;;21.05;8.88;;;;;;;1.25;79.07;99367.23;1841459;77;21365;-69
2020/12/28 06:50:55;;;;;;;19.60;9.60;;;;;;;1.24;79.26;99366.38;1841551;77;21478;-67
2020/12/28 06:53:26;;;;;;;16.67;8.40;;;;;;;1.27;79.29;99371.92;1836051;76;21046;-68
2020/12/28 06:56:11;;;;;;;17.65;11.22;;;;;;;1.29;79.27;99385.58;1822382;78;21095;-69
2020/12/28 06:58:41;;;;;;;20.62;10.85;;;;;;;1.29;79.42;99384.30;1757923;81;21411;-69
2020/12/28 07:01:09;;;;;;;21.00;10.05;;;;;;;1.30;79.49;99375.32;1780496;80;21041;-69
2020/12/28 07:03:36;;;;;;;13.38;8.68;;;;;;;1.35;79.44;99385.13;1780419;80;21482;-70
2020/12/28 07:06:05;;;;;;;14.03;8.30;;;;;;;1.36;79.52;99369.31;1774879;80;21222;-69
2020/12/28 07:08:33;;;;;;;13.35;8.05;;;;;;;1.37;79.42;99359.48;1764891;80;21171;-69
2020/12/28 07:11:03;;;;;;;12.10;7.37;;;;;;;1.35;79.56;99356.08;1751096;80;21410;-69
2020/12/28 07:13:32;;;;;;;14.10;8.45;;;;;;;1.32;79.70;99340.30;1750973;82;21137;-64
2020/12/28 07:16:04;;;;;;;13.03;9.08;;;;;;;1.32;79.87;99333.04;1751131;82;21563;-72
2020/12/28 07:18:33;;;;;;;20.82;9.23;;;;;;;1.33;79.92;99338.58;1757886;80;21538;-70
2020/12/28 07:21:02;;;;;;;16.62;7.92;;;;;;;1.33;80.03;99340.72;1757918;80;21143;-70
2020/12/28 07:23:30;;;;;;;18.95;8.10;;;;;;;1.35;80.08;99336.44;1751006;81;21442;-70
2020/12/28 07:26:12;;;;;;;14.35;8.28;;;;;;;1.35;80.21;99356.94;1751031;81;21082;-76
2020/12/28 07:28:47;;;;;;;17.57;8.38;;;;;;;1.41;80.25;99352.61;1721543;82;21126;-74
2020/12/28 07:31:18;;;;;;;21.95;9.98;;;;;;;1.43;80.18;99349.17;1769478;80;21488;-72
2020/12/28 07:33:49;;;;;;;16.97;9.28;;;;;;;1.44;80.15;99357.72;1761572;79;21054;-74
2020/12/28 07:36:20;;;;;;;17.07;10.43;;;;;;;1.44;80.27;99370.53;1751191;80;21362;-71
2020/12/28 07:38:49;;;;;;;22.52;11.18;;;;;;;1.45;80.34;99386.33;1756673;80;21657;-73
2020/12/28 07:41:23;;;;;;;29.37;12.65;;;;;;;1.46;80.36;99382.91;1750890;82;21062;-72
2020/12/28 07:43:56;;;;;;;15.88;9.38;;;;;;;1.45;80.40;99369.24;1762481;80;21169;-74
2020/12/28 07:46:37;;;;;;;12.23;8.50;;;;;;;1.48;80.46;99376.91;1781770;80;21050;-71
2020/12/28 07:49:21;;;;;;;17.77;8.58;;;;;;;1.51;80.43;99367.93;1749053;80;21361;-74
2020/12/28 07:51:57;;;;;;;14.93;8.90;;;;;;;1.49;80.50;99363.24;1764079;79;21189;-75
2020/12/28 07:54:27;;;;;;;18.25;10.53;;;;;;;1.48;80.56;99365.81;1749887;80;21523;-75
2020/12/28 07:56:59;;;;;;;20.55;8.30;;;;;;;1.48;80.60;99369.66;1750421;80;21070;-69
2020/12/28 07:59:44;;;;;;;19.20;11.00;;;;;;;1.46;80.74;99358.56;1750775;80;21050;-72
2020/12/28 08:02:38;;;;;;;15.95;10.05;;;;;;;1.44;80.85;99367.97;1750651;80;22092;-74
2020/12/28 08:05:06;;;;;;;15.98;10.60;;;;;;;1.42;81.08;99374.38;1737087;82;21074;-77
2020/12/28 08:07:35;;;;;;;14.38;10.20;;;;;;;1.40;81.22;99365.03;1750504;80;21062;-73
2020/12/28 08:10:09;;;;;;;24.87;10.27;;;;;;;1.41;81.33;99361.58;1750881;80;21062;-77
2020/12/28 08:12:53;;;;;;;15.60;8.58;;;;;;;1.44;81.42;99359.84;1750456;82;21251;-69
2020/12/28 08:15:29;;;;;;;20.17;8.85;;;;;;;1.43;81.50;99354.30;1750275;82;21581;-73
2020/12/28 08:18:08;;;;;;;15.35;9.78;;;;;;;1.38;81.62;99343.25;1750486;80;21119;-70
2020/12/28 08:20:37;;;;;;;18.12;9.38;;;;;;;1.35;81.75;99336.44;1758515;79;21516;-70
2020/12/28 08:23:05;;;;;;;12.28;8.33;;;;;;;1.36;81.91;99351.38;1776700;79;21038;-70
2020/12/28 08:25:34;;;;;;;18.82;8.80;;;;;;;1.40;82.08;99336.38;1781488;80;21046;-71
2020/12/28 08:28:05;;;;;;;14.07;8.75;;;;;;;1.45;82.15;99333.36;1781651;79;22069;-71
2020/12/28 08:30:33;;;;;;;17.65;8.98;;;;;;;1.47;82.12;99332.92;1781455;79;21165;-70
2020/12/28 08:33:01;;;;;;;38.00;9.78;;;;;;;1.47;82.17;99322.67;1771407;79;21129;-72
2020/12/28 08:35:33;;;;;;;13.20;7.85;;;;;;;1.45;82.20;99331.23;1778258;80;21131;-71
2020/12/28 08:38:01;;;;;;;13.93;9.00;;;;;;;1.44;82.38;99316.28;1738174;81;21547;-71
2020/12/28 08:40:29;;;;;;;23.85;11.18;;;;;;;1.44;82.55;99315.00;1783836;80;21160;-74
2020/12/28 08:42:57;;;;;;;11.50;8.18;;;;;;;1.43;82.58;99320.14;1764089;80;21047;-71
2020/12/28 08:45:27;;;;;;;15.60;8.80;;;;;;;1.38;82.83;99303.11;1793584;78;21059;-71
2020/12/28 08:47:59;;;;;;;13.13;8.08;;;;;;;1.38;82.84;99303.54;1773409;79;21115;-71
2020/12/28 08:50:34;;;;;;;12.82;8.58;;;;;;;1.38;82.99;99300.55;1769256;80;21479;-70
2020/12/28 08:53:03;;;;;;;13.78;9.43;;;;;;;1.40;83.12;99295.38;1756073;80;21441;-71
2020/12/28 08:55:31;;;;;;;17.25;8.68;;;;;;;1.43;83.03;99289.38;1756154;81;21122;-72
2020/12/28 08:58:00;;;;;;;10.40;8.50;;;;;;;1.43;83.10;99274.01;1755937;80;21114;-71
2020/12/28 09:00:28;;;;;;;15.40;8.40;;;;;;;1.45;83.09;99274.85;1755870;81;21205;-72
2020/12/28 09:02:59;;;;;;;12.78;8.68;;;;;;;1.47;83.10;99260.31;1756000;81;21081;-72
2020/12/28 09:05:31;;;;;;;23.38;11.03;;;;;;;1.50;83.08;99251.32;1755823;81;22252;-71
2020/12/28 09:07:59;;;;;;;16.30;10.65;;;;;;;1.51;83.02;99244.91;1727736;81;21193;-70
2020/12/28 09:10:27;;;;;;;20.20;10.13;;;;;;;1.52;82.97;99239.34;1755380;81;21134;-72
2020/12/28 09:12:55;;;;;;;16.42;9.58;;;;;;;1.52;82.94;99241.48;1755343;80;21583;-72
2020/12/28 09:15:23;;;;;;;18.70;9.70;;;;;;;1.50;83.07;99247.48;1755532;80;21165;-73
2020/12/28 09:17:51;;;;;;;16.37;10.50;;;;;;;1.50;83.09;99242.35;1775409;80;21217;-71
2020/12/28 09:20:19;;;;;;;25.40;11.18;;;;;;;1.49;83.18;99248.34;1786737;79;21186;-69
2020/12/28 09:22:47;;;;;;;17.45;9.93;;;;;;;1.46;83.26;99224.87;1767509;78;21061;-73
2020/12/28 09:25:15;;;;;;;14.98;9.83;;;;;;;1.46;83.35;99225.30;1756120;81;21205;-74
2020/12/28 09:27:43;;;;;;;13.30;9.75;;;;;;;1.47;83.42;99220.59;1764124;80;21199;-73
2020/12/28 09:30:11;;;;;;;21.05;11.65;;;;;;;1.46;83.51;99215.05;1787566;80;22016;-70
2020/12/28 09:32:41;;;;;;;21.75;14.20;;;;;;;1.47;83.59;99223.16;1784651;79;21150;-69
2020/12/28 09:35:12;;;;;;;23.07;11.95;;;;;;;1.50;83.60;99224.41;1729660;81;21138;-72
2020/12/28 09:37:42;;;;;;;17.95;10.38;;;;;;;1.57;83.60;99236.32;1756079;81;21113;-72
2020/12/28 09:40:10;;;;;;;14.03;9.20;;;;;;;1.60;83.37;99223.48;1760958;80;21120;-71
2020/12/28 09:42:38;;;;;;;15.18;11.15;;;;;;;1.60;83.33;99215.80;1767401;81;21079;-71
2020/12/28 09:45:36;;;;;;;22.27;11.25;;;;;;;1.58;83.30;99202.98;1762481;79;21118;-82
2020/12/28 09:47:37;;;;;;;15.53;9.38;;;;;;;1.58;83.45;99217.09;1780205;78;21081;-72
2020/12/28 09:50:05;;;;;;;15.50;10.48;;;;;;;1.63;83.47;99213.17;1798894;79;21047;-73
2020/12/28 09:52:38;;;;;;;21.00;11.85;;;;;;;1.65;83.39;99205.89;1798845;78;21097;-74
2020/12/28 09:55:15;;;;;;;23.38;12.82;;;;;;;1.71;83.33;99215.23;1872634;75;22843;-75
2020/12/28 09:57:48;;;;;;;35.45;12.55;;;;;;;1.67;83.47;99204.59;1839259;77;21132;-71
2020/12/28 10:00:15;;;;;;;27.60;11.18;;;;;;;1.72;83.32;99192.16;1841436;77;21428;-70
2020/12/28 10:02:43;;;;;;;18.37;10.85;;;;;;;1.75;83.15;99186.58;1841559;78;20887;-73
2020/12/28 10:05:11;;;;;;;20.27;12.07;;;;;;;1.73;83.16;99184.87;1842140;78;20922;-77
2020/12/28 10:07:39;;;;;;;22.58;12.88;;;;;;;1.74;83.28;99184.45;1842355;77;21584;-78
2020/12/28 10:10:08;;;;;;;25.23;12.00;;;;;;;1.80;83.21;99176.67;1841839;77;21093;-72
2020/12/28 10:12:38;;;;;;;12.13;9.35;;;;;;;1.82;83.01;99176.22;1841717;78;21185;-81
2020/12/28 10:15:07;;;;;;;17.80;10.65;;;;;;;1.81;82.95;99182.21;1842019;77;20982;-82
2020/12/28 10:17:35;;;;;;;18.15;12.00;;;;;;;1.80;83.05;99184.36;1839966;78;20903;-73
2020/12/28 10:20:04;;;;;;;26.45;14.03;;;;;;;1.82;83.07;99183.91;1808643;78;21065;-81
2020/12/28 10:22:34;;;;;;;14.80;10.75;;;;;;;1.85;83.13;99191.58;1777422;79;21065;-78
2020/12/28 10:25:01;;;;;;;13.68;9.95;;;;;;;1.90;83.01;99203.92;1808796;79;21368;-77
2020/12/28 10:27:30;;;;;;;19.67;11.00;;;;;;;1.94;82.92;99196.62;1808514;79;21050;-74
2020/12/28 10:30:03;;;;;;;32.58;13.28;;;;;;;1.98;82.87;99195.73;1779180;79;21108;-73
2020/12/28 10:32:34;;;;;;;24.30;11.88;;;;;;;2.01;82.82;99173.86;1808494;78;21049;-73
2020/12/28 10:35:02;;;;;;;19.80;11.73;;;;;;;2.02;82.57;99155.04;1808286;78;21517;-72
2020/12/28 10:37:31;;;;;;;18.85;12.37;;;;;;;2.01;82.51;99152.06;1808438;79;21600;-82
2020/12/28 10:40:01;;;;;;;16.65;9.65;;;;;;;2.03;82.55;99141.78;1792924;79;21181;-73
2020/12/28 10:42:28;;;;;;;16.82;10.72;;;;;;;2.03;82.47;99136.66;1776154;80;21153;-72
2020/12/28 10:44:56;;;;;;;15.00;11.03;;;;;;;2.00;82.40;99144.38;1718590;83;21182;-73
2020/12/28 10:47:25;;;;;;;17.48;11.97;;;;;;;1.92;82.56;99133.39;1726643;81;21069;-74
2020/12/28 10:49:54;;;;;;;16.27;10.95;;;;;;;1.84;82.80;99144.16;1726176;82;21166;-70
2020/12/28 10:52:24;;;;;;;20.97;11.00;;;;;;;1.78;83.20;99114.76;1726211;83;21130;-68
2020/12/28 10:54:53;;;;;;;16.00;12.03;;;;;;;1.72;83.38;99112.67;1726094;83;21126;-74
2020/12/28 10:57:22;;;;;;;22.32;12.78;;;;;;;1.68;83.69;99133.23;1726407;81;21069;-79
2020/12/28 10:59:51;;;;;;;15.58;11.50;;;;;;;1.67;83.81;99131.09;1726382;83;21090;-69
2020/12/28 11:02:57;;;;;;;23.77;12.18;;;;;;;1.70;83.98;99128.94;1726431;83;23541;-70
2020/12/28 11:05:26;;;;;;;16.40;12.40;;;;;;;1.72;84.03;99142.16;1726119;82;21098;-71
2020/12/28 11:08:00;;;;;;;19.87;12.43;;;;;;;1.79;84.38;99149.36;1701426;83;21089;-72
2020/12/28 11:10:29;;;;;;;17.50;12.43;;;;;;;1.85;83.86;99149.27;1725819;83;21169;-69
2020/12/28 11:12:57;;;;;;;21.02;11.38;;;;;;;1.83;83.70;99133.05;1725888;82;21152;-71
2020/12/28 11:15:25;;;;;;;19.23;11.57;;;;;;;1.80;83.72;99127.95;1725492;81;21360;-80
2020/12/28 11:17:53;;;;;;;16.82;11.95;;;;;;;1.76;83.76;99125.03;1699028;83;21129;-71
2020/12/28 11:20:23;;;;;;;19.48;11.48;;;;;;;1.70;83.94;99115.69;1699391;83;21054;-70
2020/12/28 11:22:51;;;;;;;14.18;10.63;;;;;;;1.63;84.18;99094.82;1725787;83;21090;-75
2020/12/28 11:25:19;;;;;;;15.80;11.22;;;;;;;1.60;84.39;99072.25;1725902;83;21649;-71
2020/12/28 11:27:47;;;;;;;13.60;10.30;;;;;;;1.60;84.52;99060.25;1725950;81;22072;-69
2020/12/28 11:30:14;;;;;;;14.43;10.88;;;;;;;1.60;84.77;99073.06;1725778;83;21082;-80
2020/12/28 11:32:42;;;;;;;14.28;10.95;;;;;;;1.60;84.79;99083.78;1725828;83;21090;-73
2020/12/28 11:35:10;;;;;;;14.38;10.23;;;;;;;1.58;84.86;99069.70;1725868;81;21070;-73
2020/12/28 11:37:38;;;;;;;13.75;10.30;;;;;;;1.57;85.06;99065.44;1725763;81;21165;-71
2020/12/28 11:40:06;;;;;;;18.07;11.18;;;;;;;1.57;85.17;99064.16;1734405;81;21374;-72
2020/12/28 11:42:34;;;;;;;15.35;10.75;;;;;;;1.57;85.30;99056.90;1706932;81;21118;-69
2020/12/28 11:45:09;;;;;;;20.72;10.38;;;;;;;1.56;85.47;99061.61;1755830;81;21050;-70
2020/12/28 11:47:37;;;;;;;16.48;10.63;;;;;;;1.56;85.53;99051.36;1727965;81;21570;-76
2020/12/28 11:50:05;;;;;;;15.28;9.85;;;;;;;1.56;85.63;99043.23;1747895;80;21114;-69
2020/12/28 11:52:34;;;;;;;16.75;11.00;;;;;;;1.56;85.83;99043.67;1740073;81;21326;-78
2020/12/28 11:55:02;;;;;;;14.50;9.75;;;;;;;1.55;85.87;99050.94;1700818;82;21121;-73